SKPE/PEI METAR and TAF weather

Enter ICAO airport designator
Station Type Date Time Source
SKPE METAR 2022/12/05 16:00 UTC NOAA

SKPE 051600Z 33006KT 9999 SCT014 23/18 Q1018 RMK A3006


Station Type Date Time Source
SKPE Decoded METAR 2022/12/05 16:00 UTC NOAA

Pereira / Matecana, Colombia (SKPE) 04-49N 075-44W 1342M
Dec 05, 2022 - 11:00 AM EST / 2022.12.05 1600 UTC
Wind: from the NNW (330 degrees) at 7 MPH (6 KT):0
Visibility: greater than 7 mile(s):0
Sky conditions: partly cloudy
Temperature: 73 F (23 C)
Dew Point: 64 F (18 C)
Relative Humidity: 73%
Pressure (altimeter): 30.06 in. Hg (1018 hPa)
ob: SKPE 051600Z 33006KT 9999 SCT014 23/18 Q1018 RMK A3006
cycle: 16

Station Type Date Time Source
SKPE TAF 2022/12/05 12:36 UTC NOAA

TAF SKPE 051030Z 0512/0612 VRB02KT 4000 BR BKN010
BECMG 0514/0516 9999 NSW SCT015
TEMPO 0520/0524 DZ SCT015 BKN080 TX27/0520Z TN18/0610Z

Example: see airport list